Roseburg, OR (97471)

12:16 AM PST on December 03, 2016 (GMT -0800)
Hucrest | | Change Station

Elev 425 ft 43.22 °N, 123.38 °W | Updated 5 minutes ago

Overcast
Overcast
45.5 °F
Feels Like 46 °F
N
0.0
Wind Variable Wind from ESE
Gusts 0.0 mph

Today
High -- | Low -- °F
--% Chance of Precip.
Yesterday
High -- | Low -- °F
Precip. -- in
Pressure 30.36 in
Visibility 10.0 miles
Clouds Overcast 2200 ft
Windchill 46 °F
Dew Point 42 °F
Humidity 88%
Rainfall 0.00 in
Snow Depth Not available.
7:28 AM 4:38 PM
Waxing Crescent, 13% visible
METAR KRBG 030753Z AUTO 00000KT 10SM OVC022 08/06 A3035 RMK AO2 RAB06E20 SLP281 P0000 T00780061 400890044
Pressure 30.36 in
Visibility 10.0 miles
Clouds Overcast 2200 ft
Windchill 46 °F
Dew Point 42 °F
Humidity 88%
Rainfall 0.00 in
Snow Depth Not available.
7:28 AM 4:38 PM
Waxing Crescent, 13% visible
METAR KRBG 030753Z AUTO 00000KT 10SM OVC022 08/06 A3035 RMK AO2 RAB06E20 SLP281 P0000 T00780061 400890044

10-Day Weather Forecast

Almanac

Astronomy

Dec. 03, 2016 Rise Set
Actual Time
Civil Twilight
Nautical Twilight
Astronomical Twilight
Moon
Length of Visible Light
Length of Day
Tomorrow will be .
, % of the Moon is Illuminated

Today's Extremes

State Highs State Lows

Community

WunderPhotos

Upload Photos

1,955,432 photos uploaded!

WunderBlog® & News

Nearby

Air Quality

  Air Quality AQ Index Pollutant
Not available.

Snow Depth

Station Depth Elevation

Earthquake Activity

City Distance Mag. Time & Date
Minimum magnitude displayed is 2.5.

Coastal Water Temperatures

Place Temperature

Stations

Nearby Weather Stations

Station Location Temp. Windchill Dew Point Humidity Wind Precip. Elev Updated Type
                   

Watches & Warnings

There are currently no watches in effect.